Time;durP1;ratioP1;P1;durP2;ratioP2;P2;SDS_P1;SDS_P2;PMS_P1;PMS_P2;Temp;Humidity;BMP_temperature;BMP_pressure;BME280_temperature;BME280_humidity;BME280_pressure;Samples;Min_cycle;Max_cycle;Signal;HPM_P1;HPM_P2
2021/10/26 00:02:19;;;;;;;0.52;0.30;;;;;;;;;;5034437;28;20038;-60
2021/10/26 00:04:45;;;;;;;0.63;0.30;;;;;;;;;;5033753;28;20017;-60
2021/10/26 00:07:10;;;;;;;0.52;0.30;;;;;;;;;;5034414;28;20031;-60
2021/10/26 00:09:35;;;;;;;0.20;0.20;;;;;;;;;;5034059;28;20013;-60
2021/10/26 00:12:02;;;;;;;1.27;0.40;;;;;;;;;;5034153;28;20061;-60
2021/10/26 00:14:27;;;;;;;0.47;0.38;;;;;;;;;;5034151;28;20017;-60
2021/10/26 00:16:53;;;;;;;1.48;0.40;;;;;;;;;;5034167;28;20018;-60
2021/10/26 00:19:18;;;;;;;0.47;0.20;;;;;;;;;;5034066;28;20025;-60
2021/10/26 00:21:44;;;;;;;0.30;0.30;;;;;;;;;;5033853;28;20357;-60
2021/10/26 00:24:09;;;;;;;0.47;0.30;;;;;;;;;;5034046;28;20013;-60
2021/10/26 00:26:35;;;;;;;0.40;0.17;;;;;;;;;;5033762;28;20049;-60
2021/10/26 00:29:00;;;;;;;0.93;0.28;;;;;;;;;;5033994;28;20032;-60
2021/10/26 00:31:25;;;;;;;0.40;0.20;;;;;;;;;;5033862;28;20029;-60
2021/10/26 00:33:51;;;;;;;0.95;0.30;;;;;;;;;;5031468;28;20047;-61
2021/10/26 00:36:17;;;;;;;1.17;0.40;;;;;;;;;;5033817;28;20028;-60
2021/10/26 00:38:42;;;;;;;0.57;0.30;;;;;;;;;;5033365;28;20337;-60
2021/10/26 00:41:07;;;;;;;0.40;0.22;;;;;;;;;;5033823;28;20372;-60
2021/10/26 00:43:32;;;;;;;0.45;0.28;;;;;;;;;;5033720;28;20135;-60
2021/10/26 00:45:58;;;;;;;0.20;0.20;;;;;;;;;;5033541;28;20022;-60
2021/10/26 00:48:23;;;;;;;0.52;0.20;;;;;;;;;;5033433;28;20357;-60
2021/10/26 00:50:48;;;;;;;1.23;0.13;;;;;;;;;;5033430;28;20056;-60
2021/10/26 00:53:17;;;;;;;0.20;0.20;;;;;;;;;;5033398;28;20527;-60
2021/10/26 00:55:43;;;;;;;1.75;0.25;;;;;;;;;;5033144;28;20376;-60
2021/10/26 00:58:08;;;;;;;1.23;0.40;;;;;;;;;;5033378;28;20025;-60
2021/10/26 01:00:34;;;;;;;0.13;0.10;;;;;;;;;;5033023;28;20030;-60
2021/10/26 01:02:59;;;;;;;0.28;0.22;;;;;;;;;;5033421;28;20030;-60
2021/10/26 01:05:26;;;;;;;0.30;0.27;;;;;;;;;;5033346;28;20021;-61
2021/10/26 01:07:52;;;;;;;0.63;0.40;;;;;;;;;;5033245;28;20806;-60
2021/10/26 01:10:18;;;;;;;0.10;0.10;;;;;;;;;;5033291;28;20204;-60
2021/10/26 01:12:43;;;;;;;0.77;0.30;;;;;;;;;;5032754;28;20123;-60
2021/10/26 01:15:09;;;;;;;0.30;0.10;;;;;;;;;;5033326;28;20014;-60
2021/10/26 01:17:34;;;;;;;1.33;0.30;;;;;;;;;;5032968;28;20020;-60
2021/10/26 01:20:00;;;;;;;0.55;0.20;;;;;;;;;;5033084;28;20026;-60
2021/10/26 01:22:26;;;;;;;0.30;0.10;;;;;;;;;;5033083;28;20020;-60
2021/10/26 01:24:52;;;;;;;1.40;0.52;;;;;;;;;;5032659;28;20379;-60
2021/10/26 01:27:18;;;;;;;0.68;0.47;;;;;;;;;;5033059;28;20072;-60
2021/10/26 01:29:44;;;;;;;0.43;0.30;;;;;;;;;;5032882;28;20056;-60
2021/10/26 01:32:10;;;;;;;0.68;0.20;;;;;;;;;;5032936;28;20076;-60
2021/10/26 01:34:35;;;;;;;0.22;0.20;;;;;;;;;;5032803;28;20064;-60
2021/10/26 01:37:01;;;;;;;0.60;0.17;;;;;;;;;;5032706;28;20025;-60
2021/10/26 01:39:29;;;;;;;0.85;0.30;;;;;;;;;;5032588;28;20029;-60
2021/10/26 01:41:56;;;;;;;0.68;0.13;;;;;;;;;;5032787;28;20064;-60
2021/10/26 01:44:21;;;;;;;1.30;0.30;;;;;;;;;;5033158;28;20468;-61
2021/10/26 01:46:47;;;;;;;0.30;0.05;;;;;;;;;;5035980;28;20064;-60
2021/10/26 01:49:12;;;;;;;1.10;0.30;;;;;;;;;;5036692;28;20034;-60
2021/10/26 01:51:37;;;;;;;1.35;0.52;;;;;;;;;;5036737;28;20025;-60
2021/10/26 01:54:02;;;;;;;0.60;0.10;;;;;;;;;;5036618;28;20507;-60
2021/10/26 01:56:28;;;;;;;0.20;0.17;;;;;;;;;;5036649;28;20444;-60
2021/10/26 01:58:53;;;;;;;0.20;0.20;;;;;;;;;;5036470;28;20392;-60
2021/10/26 02:01:18;;;;;;;0.73;0.15;;;;;;;;;;5036493;28;20041;-60
2021/10/26 02:03:43;;;;;;;0.67;0.23;;;;;;;;;;5036230;28;20029;-60
2021/10/26 02:06:09;;;;;;;0.95;0.30;;;;;;;;;;5036481;28;20246;-61
2021/10/26 02:08:34;;;;;;;0.50;0.10;;;;;;;;;;5036287;28;20376;-60
2021/10/26 02:10:59;;;;;;;1.05;0.20;;;;;;;;;;5036575;28;20041;-60
2021/10/26 02:13:24;;;;;;;0.35;0.10;;;;;;;;;;5036456;28;20372;-60
2021/10/26 02:15:50;;;;;;;0.97;0.10;;;;;;;;;;5036305;28;20650;-61
2021/10/26 02:18:15;;;;;;;0.52;0.20;;;;;;;;;;5036349;28;20262;-60
2021/10/26 02:20:40;;;;;;;0.98;0.55;;;;;;;;;;5036006;28;20406;-60
2021/10/26 02:23:05;;;;;;;0.13;0.10;;;;;;;;;;5036398;28;20480;-60
2021/10/26 02:25:31;;;;;;;0.22;0.10;;;;;;;;;;5036003;28;20503;-60
2021/10/26 02:27:56;;;;;;;0.60;0.20;;;;;;;;;;5036038;28;20014;-60
2021/10/26 02:30:22;;;;;;;0.13;0.10;;;;;;;;;;5036237;28;20024;-60
2021/10/26 02:32:47;;;;;;;0.32;0.17;;;;;;;;;;5036049;28;20486;-60
2021/10/26 02:35:12;;;;;;;0.85;0.30;;;;;;;;;;5036073;28;20104;-60
2021/10/26 02:37:37;;;;;;;0.50;0.13;;;;;;;;;;5036006;28;20021;-60
2021/10/26 02:40:04;;;;;;;0.50;0.28;;;;;;;;;;5035527;28;20029;-60
2021/10/26 02:42:29;;;;;;;0.35;0.20;;;;;;;;;;5035713;28;20444;-60
2021/10/26 02:44:54;;;;;;;0.50;0.20;;;;;;;;;;5035957;28;20099;-60
2021/10/26 02:47:19;;;;;;;1.42;0.22;;;;;;;;;;5035769;28;20025;-60
2021/10/26 02:49:45;;;;;;;0.25;0.20;;;;;;;;;;5035500;28;20037;-60
2021/10/26 02:52:10;;;;;;;1.55;0.30;;;;;;;;;;5035738;28;20405;-60
2021/10/26 02:54:35;;;;;;;0.95;0.15;;;;;;;;;;5035435;28;20030;-60
2021/10/26 02:57:00;;;;;;;0.35;0.10;;;;;;;;;;5034691;28;20380;-60
2021/10/26 02:59:25;;;;;;;0.30;0.20;;;;;;;;;;5035275;28;20032;-60
2021/10/26 03:01:51;;;;;;;0.50;0.10;;;;;;;;;;5034888;28;20070;-60
2021/10/26 03:04:16;;;;;;;0.30;0.20;;;;;;;;;;5035513;28;20239;-60
2021/10/26 03:06:43;;;;;;;0.17;0.10;;;;;;;;;;5034945;28;20030;-60
2021/10/26 03:09:08;;;;;;;1.55;0.10;;;;;;;;;;5035566;28;20246;-60
2021/10/26 03:11:34;;;;;;;0.30;0.20;;;;;;;;;;5035198;28;20511;-60
2021/10/26 03:13:59;;;;;;;0.75;0.17;;;;;;;;;;5035124;28;20411;-60
2021/10/26 03:16:24;;;;;;;0.30;0.15;;;;;;;;;;5035334;28;20025;-60
2021/10/26 03:18:49;;;;;;;0.50;0.20;;;;;;;;;;5035289;28;20029;-60
2021/10/26 03:21:15;;;;;;;0.30;0.10;;;;;;;;;;5034974;28;20026;-60
2021/10/26 03:23:40;;;;;;;0.45;0.20;;;;;;;;;;5034860;28;20139;-60
2021/10/26 03:26:05;;;;;;;0.50;0.20;;;;;;;;;;5034988;28;20096;-61
2021/10/26 03:28:31;;;;;;;1.27;0.30;;;;;;;;;;5035270;28;20029;-61
2021/10/26 03:30:57;;;;;;;0.93;0.30;;;;;;;;;;5035064;28;20293;-60
2021/10/26 03:33:22;;;;;;;0.30;0.20;;;;;;;;;;5035029;28;20025;-60
2021/10/26 03:35:48;;;;;;;0.30;0.10;;;;;;;;;;5034668;28;20021;-60
2021/10/26 03:38:13;;;;;;;0.22;0.10;;;;;;;;;;5034806;28;20825;-61
2021/10/26 03:40:38;;;;;;;0.10;0.10;;;;;;;;;;5034487;28;20040;-61
2021/10/26 03:43:05;;;;;;;0.40;0.17;;;;;;;;;;5034757;28;20101;-60
2021/10/26 03:45:30;;;;;;;0.20;0.10;;;;;;;;;;5034709;28;20043;-60
2021/10/26 03:47:56;;;;;;;0.50;0.13;;;;;;;;;;5034399;28;20387;-60
2021/10/26 03:50:21;;;;;;;0.60;0.15;;;;;;;;;;5034596;28;20505;-60
2021/10/26 03:52:46;;;;;;;0.88;0.20;;;;;;;;;;5034428;28;20566;-60
2021/10/26 03:55:11;;;;;;;0.28;0.10;;;;;;;;;;5034519;28;20025;-60
2021/10/26 03:57:37;;;;;;;0.60;0.22;;;;;;;;;;5034368;28;20151;-60
2021/10/26 04:00:04;;;;;;;0.25;0.20;;;;;;;;;;5034229;28;20021;-60
2021/10/26 04:02:30;;;;;;;0.80;0.20;;;;;;;;;;5034132;28;20049;-60
2021/10/26 04:05:10;;;;;;;0.20;0.10;;;;;;;;;;5034440;28;20033;-60
2021/10/26 04:07:45;;;;;;;0.80;0.20;;;;;;;;;;5034100;28;20021;-60
2021/10/26 04:10:15;;;;;;;0.68;0.20;;;;;;;;;;5034107;28;20091;-60
2021/10/26 04:12:41;;;;;;;0.15;0.10;;;;;;;;;;5034042;28;20029;-61
2021/10/26 04:15:06;;;;;;;0.20;0.10;;;;;;;;;;5034272;28;20026;-60
2021/10/26 04:17:31;;;;;;;0.80;0.13;;;;;;;;;;5033876;28;20029;-60
2021/10/26 04:19:59;;;;;;;1.10;0.20;;;;;;;;;;5033945;28;20338;-60
2021/10/26 04:22:25;;;;;;;0.57;0.10;;;;;;;;;;5033962;28;20297;-60
2021/10/26 04:24:50;;;;;;;0.60;0.13;;;;;;;;;;5033673;28;20017;-60
2021/10/26 04:27:16;;;;;;;0.10;0.10;;;;;;;;;;5033871;28;20033;-60
2021/10/26 04:29:42;;;;;;;0.65;0.10;;;;;;;;;;5033758;28;20036;-60
2021/10/26 04:32:09;;;;;;;0.20;0.20;;;;;;;;;;5033958;28;20518;-60
2021/10/26 04:34:34;;;;;;;1.70;0.30;;;;;;;;;;5033874;28;20062;-60
2021/10/26 04:36:59;;;;;;;0.53;0.10;;;;;;;;;;5033584;28;20029;-60
2021/10/26 04:39:24;;;;;;;0.30;0.10;;;;;;;;;;5033559;28;20271;-60
2021/10/26 04:41:50;;;;;;;0.73;0.38;;;;;;;;;;5033670;28;20057;-60
2021/10/26 04:44:16;;;;;;;0.43;0.05;;;;;;;;;;5033468;28;20021;-61
2021/10/26 04:46:42;;;;;;;0.52;0.25;;;;;;;;;;5033610;28;20021;-61
2021/10/26 04:49:07;;;;;;;0.30;0.10;;;;;;;;;;5033748;28;20032;-60
2021/10/26 04:51:32;;;;;;;0.88;0.35;;;;;;;;;;5033165;28;20368;-60
2021/10/26 04:53:57;;;;;;;0.68;0.20;;;;;;;;;;5033616;28;20104;-60
2021/10/26 04:56:23;;;;;;;0.20;0.20;;;;;;;;;;5033501;28;20033;-60
2021/10/26 04:58:48;;;;;;;0.55;0.22;;;;;;;;;;5033212;28;20033;-60
2021/10/26 05:01:13;;;;;;;0.10;0.05;;;;;;;;;;5033314;28;20053;-61
2021/10/26 05:03:38;;;;;;;0.60;0.13;;;;;;;;;;5032970;28;20071;-60
2021/10/26 05:06:03;;;;;;;0.77;0.00;;;;;;;;;;5033323;28;20128;-60
2021/10/26 05:08:30;;;;;;;0.15;0.10;;;;;;;;;;5033190;28;20365;-60
2021/10/26 05:10:55;;;;;;;1.17;0.20;;;;;;;;;;5033219;28;20413;-60
2021/10/26 05:13:20;;;;;;;0.30;0.10;;;;;;;;;;5033208;28;20071;-61
2021/10/26 05:15:45;;;;;;;0.30;0.30;;;;;;;;;;5032921;28;20108;-60
2021/10/26 05:18:16;;;;;;;0.20;0.20;;;;;;;;;;5031916;28;20036;-60
2021/10/26 05:20:43;;;;;;;0.50;0.22;;;;;;;;;;5032488;28;20045;-60
2021/10/26 05:23:10;;;;;;;0.08;0.08;;;;;;;;;;5033332;28;20010;-60
2021/10/26 05:25:35;;;;;;;0.38;0.20;;;;;;;;;;5032932;28;20018;-60
2021/10/26 05:28:01;;;;;;;0.20;0.10;;;;;;;;;;5033194;28;20059;-60
2021/10/26 05:30:27;;;;;;;0.75;0.20;;;;;;;;;;5033015;28;20013;-60
2021/10/26 05:32:52;;;;;;;0.77;0.20;;;;;;;;;;5032793;28;20025;-60
2021/10/26 05:35:18;;;;;;;0.70;0.30;;;;;;;;;;5033122;28;20400;-60
2021/10/26 05:37:43;;;;;;;0.30;0.20;;;;;;;;;;5032764;28;20092;-60
2021/10/26 05:40:09;;;;;;;0.45;0.20;;;;;;;;;;5032776;28;20033;-60
2021/10/26 05:42:34;;;;;;;0.73;0.00;;;;;;;;;;5032906;28;20491;-60
2021/10/26 05:45:00;;;;;;;0.32;0.03;;;;;;;;;;5033117;28;20483;-60
2021/10/26 05:47:25;;;;;;;0.52;0.30;;;;;;;;;;5032811;28;20021;-60
2021/10/26 05:49:51;;;;;;;0.35;0.20;;;;;;;;;;5032777;28;20069;-60
2021/10/26 05:52:16;;;;;;;0.20;0.15;;;;;;;;;;5032600;28;20108;-60
2021/10/26 05:54:41;;;;;;;0.70;0.20;;;;;;;;;;5032773;28;20100;-60
2021/10/26 05:57:07;;;;;;;0.68;0.10;;;;;;;;;;5032894;28;20104;-60
2021/10/26 05:59:32;;;;;;;1.35;0.10;;;;;;;;;;5032328;28;20025;-60
2021/10/26 06:01:57;;;;;;;0.88;0.15;;;;;;;;;;5032276;28;20052;-60
2021/10/26 06:04:24;;;;;;;0.70;0.15;;;;;;;;;;5032781;28;20025;-60
2021/10/26 06:06:49;;;;;;;0.75;0.10;;;;;;;;;;5032649;28;20460;-60
2021/10/26 06:09:16;;;;;;;1.45;0.30;;;;;;;;;;5032556;28;20047;-61
2021/10/26 06:11:41;;;;;;;0.32;0.10;;;;;;;;;;5032231;28;20104;-60
2021/10/26 06:14:08;;;;;;;0.60;0.10;;;;;;;;;;5032827;28;20136;-61
2021/10/26 06:16:34;;;;;;;0.20;0.00;;;;;;;;;;5032593;28;20460;-60
2021/10/26 06:18:59;;;;;;;0.40;0.20;;;;;;;;;;5032640;28;20038;-60
2021/10/26 06:21:25;;;;;;;1.05;0.20;;;;;;;;;;5032637;28;20027;-61
2021/10/26 06:23:50;;;;;;;0.35;0.10;;;;;;;;;;5032508;28;20014;-60
2021/10/26 06:26:15;;;;;;;1.10;0.28;;;;;;;;;;5032704;28;20021;-60
2021/10/26 06:28:41;;;;;;;0.87;0.27;;;;;;;;;;5032400;28;20074;-60
2021/10/26 06:31:06;;;;;;;0.10;0.10;;;;;;;;;;5033172;28;20287;-60
2021/10/26 06:33:31;;;;;;;0.50;0.30;;;;;;;;;;5035871;28;20026;-60
2021/10/26 06:35:56;;;;;;;0.15;0.10;;;;;;;;;;5036060;28;20029;-60
2021/10/26 06:38:22;;;;;;;0.45;0.10;;;;;;;;;;5035824;28;20041;-60
2021/10/26 06:40:47;;;;;;;0.20;0.10;;;;;;;;;;5035970;28;20349;-61
2021/10/26 06:43:13;;;;;;;0.55;0.20;;;;;;;;;;5036097;28;20394;-60
2021/10/26 06:45:38;;;;;;;0.10;0.10;;;;;;;;;;5035482;28;20029;-60
2021/10/26 06:48:04;;;;;;;0.20;0.10;;;;;;;;;;5035832;28;20018;-60
2021/10/26 06:50:29;;;;;;;1.38;0.30;;;;;;;;;;5035646;28;20029;-60
2021/10/26 06:52:54;;;;;;;0.63;0.27;;;;;;;;;;5035650;28;20493;-60
2021/10/26 06:55:20;;;;;;;0.93;0.30;;;;;;;;;;5035489;28;20021;-60
2021/10/26 06:57:48;;;;;;;0.55;0.08;;;;;;;;;;5035552;28;20075;-60
2021/10/26 07:00:14;;;;;;;0.82;0.20;;;;;;;;;;5035604;28;20087;-60
2021/10/26 07:02:49;;;;;;;1.73;0.30;;;;;;;;;;5035331;28;20483;-60
2021/10/26 07:05:15;;;;;;;0.45;0.20;;;;;;;;;;5035387;28;20076;-60
2021/10/26 07:07:40;;;;;;;0.65;0.20;;;;;;;;;;5035477;28;20028;-60
2021/10/26 07:10:06;;;;;;;0.10;0.10;;;;;;;;;;5035509;28;20021;-61
2021/10/26 07:12:31;;;;;;;0.08;0.00;;;;;;;;;;5035074;28;20037;-60
2021/10/26 07:14:56;;;;;;;0.70;0.13;;;;;;;;;;5035352;28;20025;-60
2021/10/26 07:17:22;;;;;;;1.20;0.20;;;;;;;;;;5035458;28;20021;-60
2021/10/26 07:19:47;;;;;;;0.47;0.22;;;;;;;;;;5034791;28;20488;-60
2021/10/26 07:22:12;;;;;;;1.07;0.10;;;;;;;;;;5035257;28;20017;-60
2021/10/26 07:24:37;;;;;;;0.25;0.15;;;;;;;;;;5035114;28;20251;-60
2021/10/26 07:27:03;;;;;;;0.13;0.03;;;;;;;;;;5034972;28;20021;-60
2021/10/26 07:29:28;;;;;;;0.35;0.17;;;;;;;;;;5035153;28;20021;-60
2021/10/26 07:31:55;;;;;;;0.45;0.20;;;;;;;;;;5035004;28;20033;-60
2021/10/26 07:34:22;;;;;;;0.40;0.30;;;;;;;;;;5034896;28;20013;-60
2021/10/26 07:36:47;;;;;;;0.17;0.17;;;;;;;;;;5034858;28;20468;-62
2021/10/26 07:39:32;;;;;;;0.88;0.20;;;;;;;;;;5034837;28;20032;-60
2021/10/26 07:41:59;;;;;;;0.22;0.10;;;;;;;;;;5034670;28;20017;-60
2021/10/26 07:44:24;;;;;;;0.50;0.20;;;;;;;;;;5034405;28;20064;-60
2021/10/26 07:46:50;;;;;;;0.38;0.28;;;;;;;;;;5034394;28;20013;-60
2021/10/26 07:49:15;;;;;;;0.38;0.20;;;;;;;;;;5034595;28;20022;-61
2021/10/26 07:51:40;;;;;;;0.93;0.17;;;;;;;;;;5034416;28;20075;-60
2021/10/26 07:54:05;;;;;;;1.03;0.10;;;;;;;;;;5034529;28;20056;-60
2021/10/26 07:56:31;;;;;;;1.85;0.20;;;;;;;;;;5034848;28;20255;-60
2021/10/26 07:58:57;;;;;;;1.65;0.20;;;;;;;;;;5034333;28;20120;-60
2021/10/26 08:01:23;;;;;;;0.20;0.20;;;;;;;;;;5034363;28;20373;-60
2021/10/26 08:03:48;;;;;;;0.88;0.10;;;;;;;;;;5034574;28;20020;-60
2021/10/26 08:06:13;;;;;;;0.20;0.10;;;;;;;;;;5034356;28;20017;-60
2021/10/26 08:08:38;;;;;;;0.50;0.30;;;;;;;;;;5034273;28;20026;-60
2021/10/26 08:11:04;;;;;;;0.17;0.17;;;;;;;;;;5034405;28;20029;-60
2021/10/26 08:13:29;;;;;;;0.40;0.10;;;;;;;;;;5034034;28;20056;-60
2021/10/26 08:15:54;;;;;;;0.38;0.10;;;;;;;;;;5034214;28;20026;-61
2021/10/26 08:18:20;;;;;;;0.20;0.10;;;;;;;;;;5034105;28;20033;-61
2021/10/26 08:20:48;;;;;;;0.40;0.20;;;;;;;;;;5033976;28;20021;-60
2021/10/26 08:23:14;;;;;;;0.77;0.13;;;;;;;;;;5034212;28;20020;-60
2021/10/26 08:25:41;;;;;;;0.85;0.20;;;;;;;;;;5033803;28;20014;-60
2021/10/26 08:28:12;;;;;;;1.65;0.10;;;;;;;;;;5034123;28;20140;-60
2021/10/26 08:30:59;;;;;;;0.32;0.10;;;;;;;;;;5033947;28;20021;-61
2021/10/26 08:35:50;;;;;;;0.15;0.00;;;;;;;;;;5034200;28;20110;-60
2021/10/26 08:38:16;;;;;;;0.55;0.08;;;;;;;;;;5033543;28;20047;-60
2021/10/26 08:40:49;;;;;;;1.08;0.38;;;;;;;;;;5033443;28;20603;-61
2021/10/26 08:43:15;;;;;;;0.70;0.20;;;;;;;;;;5033602;28;20373;-60
2021/10/26 08:45:44;;;;;;;0.82;0.10;;;;;;;;;;5033543;28;20017;-61
2021/10/26 08:48:13;;;;;;;0.40;0.10;;;;;;;;;;5033788;28;20053;-60
2021/10/26 08:50:38;;;;;;;0.57;0.20;;;;;;;;;;5033557;28;20461;-60
2021/10/26 08:53:04;;;;;;;0.10;0.10;;;;;;;;;;5033654;28;20017;-60
2021/10/26 08:55:31;;;;;;;0.57;0.10;;;;;;;;;;5032745;28;20017;-60
2021/10/26 08:57:56;;;;;;;1.40;0.20;;;;;;;;;;5033168;28;20022;-60
2021/10/26 09:00:23;;;;;;;0.30;0.13;;;;;;;;;;5032896;28;20079;-61
2021/10/26 09:02:49;;;;;;;0.10;0.10;;;;;;;;;;5044610;28;20021;-60
2021/10/26 09:05:24;;;;;;;0.57;0.10;;;;;;;;;;5051539;28;20035;-60
2021/10/26 09:08:10;;;;;;;0.10;0.10;;;;;;;;;;5033010;28;20354;-60
2021/10/26 09:10:36;;;;;;;0.10;0.05;;;;;;;;;;5032964;28;20447;-60
2021/10/26 09:18:33;;;;;;;0.32;0.10;;;;;;;;;;5032758;28;20072;-60
2021/10/26 09:20:59;;;;;;;0.40;0.20;;;;;;;;;;5031900;28;20029;-60
2021/10/26 09:23:27;;;;;;;0.70;0.15;;;;;;;;;;5032200;28;20060;-61
2021/10/26 09:25:58;;;;;;;0.17;0.05;;;;;;;;;;5032923;28;20017;-60
2021/10/26 09:28:23;;;;;;;0.20;0.10;;;;;;;;;;5032266;28;20025;-60
2021/10/26 09:31:01;;;;;;;1.15;0.20;;;;;;;;;;5031328;28;20018;-60
2021/10/26 09:33:31;;;;;;;0.40;0.10;;;;;;;;;;5032399;28;20017;-61
2021/10/26 09:36:16;;;;;;;0.45;0.10;;;;;;;;;;5032174;28;20029;-60
2021/10/26 09:38:41;;;;;;;0.00;0.00;;;;;;;;;;5032199;28;20495;-60
2021/10/26 09:41:06;;;;;;;0.28;0.10;;;;;;;;;;5032710;28;20037;-61
2021/10/26 09:43:31;;;;;;;1.25;0.15;;;;;;;;;;5032985;28;20063;-60
2021/10/26 09:46:03;;;;;;;0.40;0.10;;;;;;;;;;5032021;28;20022;-61
2021/10/26 09:48:31;;;;;;;0.73;0.10;;;;;;;;;;5032253;28;20274;-60
2021/10/26 09:51:08;;;;;;;0.10;0.10;;;;;;;;;;5013032;28;20018;-60
2021/10/26 09:53:34;;;;;;;0.25;0.13;;;;;;;;;;5013201;28;20622;-61
2021/10/26 09:56:01;;;;;;;0.55;0.22;;;;;;;;;;5027034;28;20021;-61
2021/10/26 09:58:29;;;;;;;0.20;0.10;;;;;;;;;;5031464;28;20380;-61
2021/10/26 10:01:03;;;;;;;0.40;0.20;;;;;;;;;;5031925;28;20037;-60
2021/10/26 10:03:28;;;;;;;0.57;0.20;;;;;;;;;;5031757;28;20022;-60
2021/10/26 10:05:55;;;;;;;0.00;0.00;;;;;;;;;;5032505;28;20032;-61
2021/10/26 10:08:22;;;;;;;0.57;0.10;;;;;;;;;;5036525;28;20021;-61
2021/10/26 10:10:48;;;;;;;0.50;0.10;;;;;;;;;;5036244;28;20022;-60
2021/10/26 10:13:14;;;;;;;0.57;0.10;;;;;;;;;;5036420;28;20486;-60
2021/10/26 10:15:43;;;;;;;0.88;0.10;;;;;;;;;;5035924;28;20021;-61
2021/10/26 10:18:10;;;;;;;0.25;0.10;;;;;;;;;;5035967;28;20014;-61
2021/10/26 10:20:35;;;;;;;0.88;0.20;;;;;;;;;;5036165;28;20014;-60
2021/10/26 10:23:01;;;;;;;0.35;0.10;;;;;;;;;;5036500;28;20021;-60
2021/10/26 10:25:27;;;;;;;0.50;0.20;;;;;;;;;;5036325;28;20505;-60
2021/10/26 10:27:55;;;;;;;0.90;0.20;;;;;;;;;;5036118;28;20058;-61
2021/10/26 10:30:20;;;;;;;0.35;0.10;;;;;;;;;;5036363;28;20063;-61
2021/10/26 10:32:46;;;;;;;0.40;0.20;;;;;;;;;;5035875;28;20030;-60
2021/10/26 10:35:18;;;;;;;0.10;0.00;;;;;;;;;;5036172;28;20021;-61
2021/10/26 10:37:46;;;;;;;0.32;0.25;;;;;;;;;;5035945;28;20021;-61
2021/10/26 10:40:12;;;;;;;0.40;0.00;;;;;;;;;;5036020;28;20024;-60
2021/10/26 10:42:48;;;;;;;0.35;0.10;;;;;;;;;;5035910;28;20021;-60
2021/10/26 10:45:23;;;;;;;0.43;0.17;;;;;;;;;;5036048;28;20024;-61
2021/10/26 10:47:49;;;;;;;0.10;0.00;;;;;;;;;;5035917;28;20013;-61
2021/10/26 10:50:21;;;;;;;0.50;0.28;;;;;;;;;;5035976;28;20034;-61
2021/10/26 10:53:06;;;;;;;0.63;0.10;;;;;;;;;;5035178;28;20055;-61
2021/10/26 10:55:32;;;;;;;0.57;0.10;;;;;;;;;;4991426;28;20129;-60
2021/10/26 10:58:17;;;;;;;0.25;0.20;;;;;;;;;;4988757;28;20141;-60
2021/10/26 11:00:42;;;;;;;0.45;0.17;;;;;;;;;;4973804;28;20057;-60
2021/10/26 11:03:27;;;;;;;0.43;0.13;;;;;;;;;;4974931;28;20023;-61
2021/10/26 11:05:52;;;;;;;;;;;;;;;;;;4989542;28;20264;-60
2021/10/26 11:08:37;;;;;;;0.10;0.10;;;;;;;;;;4992547;28;19912;-61
2021/10/26 11:11:02;;;;;;;0.65;0.20;;;;;;;;;;4992441;28;20030;-60
2021/10/26 11:13:29;;;;;;;0.60;0.10;;;;;;;;;;4992340;28;20069;-61
2021/10/26 11:15:55;;;;;;;0.85;0.17;;;;;;;;;;4985634;28;20058;-61
2021/10/26 11:18:32;;;;;;;0.52;0.20;;;;;;;;;;4973758;28;20027;-61
2021/10/26 11:20:58;;;;;;;0.13;0.10;;;;;;;;;;4984135;28;20072;-60
2021/10/26 11:23:32;;;;;;;0.98;0.30;;;;;;;;;;4993491;28;20533;-61
2021/10/26 11:25:59;;;;;;;0.22;0.10;;;;;;;;;;4991957;28;20034;-61
2021/10/26 11:28:25;;;;;;;0.10;0.10;;;;;;;;;;4988496;28;20120;-61
2021/10/26 11:30:52;;;;;;;0.40;0.10;;;;;;;;;;4993629;28;20101;-61
2021/10/26 11:33:17;;;;;;;1.25;0.40;;;;;;;;;;5009874;28;20537;-60
2021/10/26 11:35:45;;;;;;;0.45;0.20;;;;;;;;;;5022391;28;20100;-61
2021/10/26 11:38:11;;;;;;;0.55;0.22;;;;;;;;;;5034387;28;20628;-60
2021/10/26 11:40:36;;;;;;;0.45;0.20;;;;;;;;;;5033847;28;20018;-60
2021/10/26 11:43:02;;;;;;;0.37;0.20;;;;;;;;;;5034033;28;20044;-61
2021/10/26 11:45:27;;;;;;;0.55;0.20;;;;;;;;;;5034063;28;20740;-60
2021/10/26 11:47:52;;;;;;;0.63;0.30;;;;;;;;;;5035107;28;20088;-60
2021/10/26 11:50:19;;;;;;;0.35;0.10;;;;;;;;;;5034182;28;20029;-62
2021/10/26 11:52:44;;;;;;;0.40;0.20;;;;;;;;;;5033976;28;20053;-61
2021/10/26 11:55:09;;;;;;;0.47;0.10;;;;;;;;;;5034139;28;20056;-61
2021/10/26 11:57:35;;;;;;;0.10;0.10;;;;;;;;;;5033710;28;20253;-61
2021/10/26 12:00:03;;;;;;;0.30;0.10;;;;;;;;;;5033334;28;20017;-61
2021/10/26 12:02:32;;;;;;;0.45;0.20;;;;;;;;;;5034532;28;20037;-61
2021/10/26 12:04:58;;;;;;;0.55;0.10;;;;;;;;;;5032159;28;20067;-60
2021/10/26 12:07:26;;;;;;;0.77;0.20;;;;;;;;;;5031288;28;20520;-60
2021/10/26 12:09:53;;;;;;;0.25;0.10;;;;;;;;;;5033583;28;20080;-61
2021/10/26 12:12:23;;;;;;;0.52;0.10;;;;;;;;;;5034139;28;20059;-61
2021/10/26 12:15:01;;;;;;;0.75;0.28;;;;;;;;;;5033386;28;20021;-61
2021/10/26 12:17:28;;;;;;;0.47;0.10;;;;;;;;;;5034309;28;20025;-60
2021/10/26 12:20:11;;;;;;;0.30;0.10;;;;;;;;;;5037578;28;20100;-60
2021/10/26 12:22:48;;;;;;;0.10;0.10;;;;;;;;;;5049247;28;20114;-61
2021/10/26 12:25:22;;;;;;;0.10;0.08;;;;;;;;;;5014332;28;20247;-61
2021/10/26 12:27:47;;;;;;;0.52;0.10;;;;;;;;;;5029009;28;20020;-61
2021/10/26 12:30:20;;;;;;;0.00;0.00;;;;;;;;;;5033519;28;20033;-61
2021/10/26 12:32:47;;;;;;;0.70;0.20;;;;;;;;;;5033178;28;20036;-61
2021/10/26 12:35:12;;;;;;;0.77;0.30;;;;;;;;;;5026123;28;20079;-60
2021/10/26 12:37:38;;;;;;;0.63;0.20;;;;;;;;;;5032592;28;20026;-61
2021/10/26 12:40:10;;;;;;;0.43;0.10;;;;;;;;;;5047638;28;20030;-60
2021/10/26 12:42:37;;;;;;;1.38;0.20;;;;;;;;;;5038609;28;20045;-60
2021/10/26 12:45:03;;;;;;;0.20;0.13;;;;;;;;;;5032036;28;20033;-61
2021/10/26 12:47:31;;;;;;;0.95;0.20;;;;;;;;;;5030599;28;20022;-60
2021/10/26 12:49:56;;;;;;;0.10;0.00;;;;;;;;;;5030235;28;20025;-61
2021/10/26 12:52:23;;;;;;;0.38;0.20;;;;;;;;;;5032852;28;20033;-63
2021/10/26 12:54:49;;;;;;;0.17;0.03;;;;;;;;;;5028921;28;20456;-62
2021/10/26 12:57:14;;;;;;;2.97;0.50;;;;;;;;;;5035806;28;20031;-62
2021/10/26 12:59:39;;;;;;;0.55;0.10;;;;;;;;;;5029796;28;20025;-61
2021/10/26 13:02:05;;;;;;;1.08;0.20;;;;;;;;;;5030491;28;20507;-62
2021/10/26 13:04:32;;;;;;;0.15;0.00;;;;;;;;;;5031946;28;20087;-62
2021/10/26 13:06:57;;;;;;;0.60;0.10;;;;;;;;;;5032121;28;20041;-61
2021/10/26 13:09:30;;;;;;;3.10;0.40;;;;;;;;;;5028978;28;20098;-61
2021/10/26 13:12:16;;;;;;;0.28;0.05;;;;;;;;;;5030456;28;20024;-61
2021/10/26 13:14:42;;;;;;;0.68;0.20;;;;;;;;;;4947163;29;20536;-61
2021/10/26 13:17:26;;;;;;;0.63;0.38;;;;;;;;;;4948163;28;20144;-61
2021/10/26 13:20:10;;;;;;;0.20;0.10;;;;;;;;;;4946835;29;20479;-62
2021/10/26 13:22:35;;;;;;;0.20;0.20;;;;;;;;;;4946989;28;20118;-61
2021/10/26 13:25:01;;;;;;;0.60;0.10;;;;;;;;;;4948782;29;20400;-62
2021/10/26 13:27:27;;;;;;;0.75;0.20;;;;;;;;;;4950213;29;20015;-62
2021/10/26 13:29:53;;;;;;;0.93;0.10;;;;;;;;;;4942332;29;20039;-62
2021/10/26 13:32:19;;;;;;;0.10;0.10;;;;;;;;;;4949781;28;20568;-62
2021/10/26 13:34:46;;;;;;;1.30;0.20;;;;;;;;;;4956834;28;20035;-61
2021/10/26 13:37:12;;;;;;;1.80;0.20;;;;;;;;;;4952092;29;20035;-63
2021/10/26 13:39:37;;;;;;;0.45;0.13;;;;;;;;;;4951625;29;20043;-62
2021/10/26 13:42:04;;;;;;;0.65;0.32;;;;;;;;;;4951899;28;21914;-61
2021/10/26 13:44:29;;;;;;;2.90;0.35;;;;;;;;;;4947869;29;20028;-62
2021/10/26 13:46:54;;;;;;;0.77;0.20;;;;;;;;;;4947300;29;20032;-63
2021/10/26 13:49:20;;;;;;;2.38;0.35;;;;;;;;;;4952677;29;20110;-63
2021/10/26 13:51:49;;;;;;;0.80;0.10;;;;;;;;;;4992103;28;20032;-62
2021/10/26 13:54:14;;;;;;;1.20;0.40;;;;;;;;;;5035763;28;20262;-61
2021/10/26 13:56:39;;;;;;;0.50;0.30;;;;;;;;;;5035557;28;20373;-63
2021/10/26 13:59:05;;;;;;;0.50;0.40;;;;;;;;;;5035987;28;20030;-62
2021/10/26 14:01:30;;;;;;;0.98;0.30;;;;;;;;;;5035656;28;20047;-61
2021/10/26 14:03:56;;;;;;;0.83;0.20;;;;;;;;;;5036052;28;20025;-61
2021/10/26 14:06:21;;;;;;;1.77;0.30;;;;;;;;;;5036003;28;20616;-63
2021/10/26 14:08:49;;;;;;;0.10;0.10;;;;;;;;;;5037943;28;20265;-62
2021/10/26 14:11:15;;;;;;;0.65;0.20;;;;;;;;;;5043885;28;20021;-62
2021/10/26 14:13:41;;;;;;;1.23;0.60;;;;;;;;;;5035971;28;20056;-62
2021/10/26 14:16:08;;;;;;;0.82;0.43;;;;;;;;;;5036247;28;20049;-62
2021/10/26 14:18:33;;;;;;;1.65;0.77;;;;;;;;;;5038644;28;20163;-63
2021/10/26 14:21:01;;;;;;;1.77;0.45;;;;;;;;;;5047187;28;20476;-61
2021/10/26 14:23:27;;;;;;;2.08;0.43;;;;;;;;;;5035863;28;20018;-62
2021/10/26 14:25:55;;;;;;;0.43;0.30;;;;;;;;;;5036549;28;20033;-63
2021/10/26 14:28:21;;;;;;;1.02;0.50;;;;;;;;;;5033945;28;20392;-63
2021/10/26 14:30:46;;;;;;;1.17;0.35;;;;;;;;;;5035831;28;20456;-62
2021/10/26 14:33:12;;;;;;;0.45;0.20;;;;;;;;;;5034663;28;20025;-62
2021/10/26 14:35:41;;;;;;;0.85;0.30;;;;;;;;;;5038951;28;20014;-63
2021/10/26 14:53:45;;;;;;;;;;;;;;;;;;5019845;28;20082;-68
2021/10/26 14:56:11;;;;;;;0.45;0.20;;;;;;;;;;5034948;28;20047;-68
2021/10/26 14:58:38;;;;;;;0.47;0.20;;;;;;;;;;5035724;28;20105;-67
2021/10/26 15:01:05;;;;;;;2.05;0.20;;;;;;;;;;5035330;28;20045;-68
2021/10/26 15:03:33;;;;;;;0.68;0.20;;;;;;;;;;5034349;28;20385;-67
2021/10/26 15:05:58;;;;;;;0.43;0.10;;;;;;;;;;5035184;28;20017;-67